Kezdőlap
METAR-TAF:

METAR-TAF

Repülőterek :

Szapporo, Japán

földrajzi szélesség: 43-07N, földrajzi hosszúság: 141-23E, magasság: 8 m

Jelenlegi meteorológiai megfigyelések

A jelentés 10 órával és 49 perccel ezelõtt készült, 11:00 UTC
Különbözõ irányokból fújó szél 2 kt
Hőmérséklet 14°C
Páratartalom 77%
Légköri nyomás 1012 hPa
Látótávolság 10 km, vagy több
Kevés felhő 3000 lábon
Szórványos felhőzet 8000 lábon
Szakadozott felhőzet 15000 lábon

METAR: RJCO 261100Z VRB02KT 9999 FEW030 SCT080 BKN150 14/10 Q1012

Idő: 06:49 (21:49 UTC)


TAF: hiányzik

Meteorológiai megfigyelések és előrejelzések több, mint 4000 repülőtéren (METAR és TAF jelentéseket).

A térképen piros és sárga pontok jelzik az elérhető meteorológiai állomásokat.

Mozgassa az egeret a pont fölött, hogy megjelenjen az állomás neve.

Azután kattintson az időjárási megfigyelések és előrejelzések megtekintéséhez.

A térkép megváltoztatása: kattintson a fekete keresztel jelölt zöld gombra ráközelítéshez, a vonallal jelölt zöld gombra távolításhoz, vagy a zöld nyilakra a szomszédos térképek eléréséhez.


METAR-TAF: